Pagrindinis puslapis
METAR-TAF:

METAR-TAF

Oro uostai :

Sindal, Danija

platuma: 57-30N, ilguma: 010-13E, Aukštis: 28 m

Dabartinis oras

Ataskaita buvo paskelbta 7 valandos ir 0 minutes, ne 12:50 UTC
Vėjas 16 kt iš Pietų/Pietryčių su gūsio iki 26 kt
Temperatūra 25°C
Drėgmė 61%
Slėgis 1013 hPa
Matomumas 10 km arba daugiau
nėra debesų žemiau 1500 m ir nėra kamuolinių lietaus debesų

METAR: EKSN 171250Z 16016G26KT CAVOK 25/17 Q1013

Laikas: 21:50 (19:50 UTC)

Prognozė

Ataskaita buvo paskelbta 10 valandos ir 53 minutes, ne 08:57 UTC
Prognozė galioja nuo 17 metu 09 UTC su 17 metu 14 UTC
Vėjas 12 kt iš Pietų/Pietryčių
Matomumas 10 km arba daugiau
nėra debesų žemiau 1500 m ir nėra kamuolinių lietaus debesų
Laikinai
nuo 17 metu 12 UTC su 17 metu 14 UTC
Vėjas 15 kt iš Pietų/Pietryčių su gūsio iki 28 kt

TAF: EKSN 170857Z 1709/1714 15012KT CAVOK TEMPO 1712/1714 15015G28KT

Orai ataskaitas ir orų prognozės (METAR, TAF).

turimą stotys yra geltonos ir raudonos taškus žemėlapyje.

Perkelti pele per norėdami pamatyti stoties vardą.

Tada spustelėkite, norėdami matyti oro stebėjimo ir prognozės.

Norėdami pakeisti žemėlapį: spustelėkite ant žalios mygtukų su juodo kryžiaus žemyn,; žalią mygtuką su brūkšneliu, jei norite nutolinti; arba žalių rodyklių gretimoms žemėlapius.


METAR-TAF: